createdAt,value
2017-09-28T00:01:23.370Z,140.53
2017-09-28T00:03:50.783Z,216.07
2017-09-28T00:06:18.187Z,89.77
2017-09-28T00:08:45.592Z,90.10
2017-09-28T00:11:12.986Z,148.73
2017-09-28T00:13:40.395Z,165.33
2017-09-28T00:16:07.793Z,122.53
2017-09-28T00:18:35.216Z,109.77
2017-09-28T00:21:02.611Z,94.60
2017-09-28T00:23:30.118Z,129.70
2017-09-28T00:25:57.515Z,114.47
2017-09-28T00:28:24.969Z,116.63
2017-09-28T00:30:52.390Z,117.17
2017-09-28T00:33:19.794Z,158.63
2017-09-28T00:35:47.191Z,130.70
2017-09-28T00:38:14.598Z,107.40
2017-09-28T00:40:41.998Z,100.03
2017-09-28T00:43:09.398Z,98.87
2017-09-28T00:45:36.801Z,110.40
2017-09-28T00:48:04.207Z,150.00
2017-09-28T00:50:31.606Z,122.23
2017-09-28T00:52:59.019Z,140.93
2017-09-28T00:55:26.419Z,91.47
2017-09-28T00:57:53.911Z,143.67
2017-09-28T01:00:21.311Z,160.73
2017-09-28T01:02:48.719Z,193.70
2017-09-28T01:05:16.114Z,118.40
2017-09-28T01:07:43.518Z,134.40
2017-09-28T01:10:10.958Z,165.17
2017-09-28T01:12:38.365Z,185.77
2017-09-28T01:15:05.775Z,137.73
2017-09-28T01:17:33.175Z,163.97
2017-09-28T01:20:00.628Z,89.90
2017-09-28T01:22:28.026Z,94.13
2017-09-28T01:24:55.430Z,123.60
2017-09-28T01:27:22.836Z,242.63
2017-09-28T01:29:50.327Z,133.40
2017-09-28T01:32:17.782Z,136.80
2017-09-28T01:34:45.247Z,188.17
2017-09-28T01:37:12.655Z,128.73
2017-09-28T01:39:40.063Z,124.83
2017-09-28T01:42:07.463Z,110.40
2017-09-28T01:44:34.870Z,259.67
2017-09-28T01:47:02.266Z,93.23
2017-09-28T01:49:29.670Z,87.00
2017-09-28T01:51:57.075Z,77.23
2017-09-28T01:54:24.470Z,125.80
2017-09-28T01:56:51.867Z,158.37
2017-09-28T01:59:19.271Z,74.07
2017-09-28T02:01:46.759Z,70.47
2017-09-28T02:04:14.164Z,191.80
2017-09-28T02:06:41.558Z,141.00
2017-09-28T02:09:08.968Z,155.70
2017-09-28T02:11:36.367Z,144.67
2017-09-28T02:14:03.786Z,144.80
2017-09-28T02:16:31.184Z,80.90
2017-09-28T02:18:58.590Z,178.53
2017-09-28T02:21:25.990Z,127.97
2017-09-28T02:23:53.459Z,100.40
2017-09-28T02:26:20.926Z,185.47
2017-09-28T02:28:48.313Z,211.80
2017-09-28T02:31:15.723Z,205.10
2017-09-28T02:33:43.127Z,160.00
2017-09-28T02:36:10.535Z,262.60
2017-09-28T02:38:37.936Z,164.37
2017-09-28T02:41:05.334Z,192.63
2017-09-28T02:43:32.734Z,187.13
2017-09-28T02:46:00.139Z,180.87
2017-09-28T02:48:27.543Z,164.20
2017-09-28T02:50:54.950Z,124.23
2017-09-28T02:53:22.422Z,201.57
2017-09-28T02:55:49.827Z,132.40
2017-09-28T02:58:17.334Z,124.00
2017-09-28T03:00:44.759Z,196.48
2017-09-28T03:03:12.163Z,147.13
2017-09-28T03:05:39.578Z,285.07
2017-09-28T03:08:06.982Z,183.60
2017-09-28T03:10:34.398Z,345.97
2017-09-28T03:13:01.813Z,288.70
2017-09-28T03:15:29.226Z,274.07
2017-09-28T03:17:56.623Z,136.90
2017-09-28T03:20:24.031Z,291.70
2017-09-28T03:22:51.438Z,369.83
2017-09-28T03:25:18.850Z,115.37
2017-09-28T03:27:46.267Z,380.13
2017-09-28T03:30:13.759Z,255.43
2017-09-28T03:32:41.162Z,116.67
2017-09-28T03:35:08.570Z,169.50
2017-09-28T03:37:36.044Z,367.40
2017-09-28T03:40:03.450Z,289.77
2017-09-28T03:42:30.858Z,359.23
2017-09-28T03:44:58.263Z,128.07
2017-09-28T03:47:25.759Z,197.73
2017-09-28T03:49:53.156Z,228.43
2017-09-28T03:52:20.562Z,393.83
2017-09-28T03:54:48.006Z,331.17
2017-09-28T03:57:15.395Z,526.50
2017-09-28T03:59:42.807Z,122.13
2017-09-28T04:02:10.228Z,457.07
2017-09-28T04:04:37.627Z,411.50
2017-09-28T04:07:05.038Z,264.27
2017-09-28T04:09:32.444Z,217.63
2017-09-28T04:11:59.862Z,194.23
2017-09-28T04:14:27.263Z,261.17
2017-09-28T04:16:54.679Z,588.23
2017-09-28T04:19:22.079Z,313.13
2017-09-28T04:21:49.530Z,392.93
2017-09-28T04:24:16.942Z,278.53
2017-09-28T04:26:44.339Z,394.00
2017-09-28T04:29:11.767Z,467.47
2017-09-28T04:31:39.171Z,240.10
2017-09-28T04:34:06.575Z,193.47
2017-09-28T04:36:34.083Z,259.40
2017-09-28T04:39:01.479Z,230.77
2017-09-28T04:41:28.882Z,427.27
2017-09-28T04:43:56.438Z,177.83
2017-09-28T04:46:23.852Z,596.77
2017-09-28T04:48:51.262Z,560.07
2017-09-28T04:51:18.669Z,321.57
2017-09-28T04:53:46.071Z,444.17
2017-09-28T04:56:13.481Z,440.23
2017-09-28T04:58:40.973Z,522.83
2017-09-28T05:03:59.034Z,424.10
2017-09-28T05:06:26.440Z,642.47
2017-09-28T05:08:53.847Z,440.60
2017-09-28T05:11:21.267Z,544.47
2017-09-28T05:13:48.660Z,530.23
2017-09-28T05:16:16.054Z,129.83
2017-09-28T05:18:43.458Z,352.53
2017-09-28T05:21:10.861Z,307.53
2017-09-28T05:23:38.381Z,106.40
2017-09-28T05:26:05.783Z,177.13
2017-09-28T05:28:33.186Z,90.03
2017-09-28T05:31:00.591Z,135.33
2017-09-28T05:33:27.988Z,417.50
2017-09-28T05:35:55.399Z,259.57
2017-09-28T05:38:22.798Z,464.67
2017-09-28T05:40:50.215Z,289.23
2017-09-28T05:43:17.619Z,290.20
2017-09-28T05:45:45.022Z,194.57
2017-09-28T05:48:12.414Z,163.53
2017-09-28T05:50:39.826Z,401.43
2017-09-28T05:53:07.235Z,436.13
2017-09-28T05:55:34.639Z,255.47
2017-09-28T05:58:02.047Z,491.53
2017-09-28T06:00:29.455Z,467.50
2017-09-28T06:02:56.851Z,152.80
2017-09-28T06:05:24.258Z,364.03
2017-09-28T06:07:51.679Z,257.80
2017-09-28T06:10:19.096Z,619.87
2017-09-28T06:12:46.574Z,489.13
2017-09-28T06:15:13.991Z,572.30
2017-09-28T06:17:41.403Z,375.50
2017-09-28T06:20:08.874Z,412.67
2017-09-28T06:22:36.276Z,432.57
2017-09-28T06:25:03.695Z,530.07
2017-09-28T06:27:31.110Z,538.83
2017-09-28T06:29:58.495Z,461.07
2017-09-28T06:32:25.903Z,297.00
2017-09-28T06:34:53.397Z,212.67
2017-09-28T06:37:20.877Z,262.67
2017-09-28T06:39:48.259Z,329.93
2017-09-28T06:42:15.658Z,327.87
2017-09-28T06:44:43.059Z,324.47
2017-09-28T06:47:10.598Z,291.23
2017-09-28T06:49:38.006Z,399.57
2017-09-28T06:52:05.411Z,319.77
2017-09-28T06:54:32.810Z,359.33
2017-09-28T06:57:00.214Z,289.60
2017-09-28T06:59:27.615Z,319.13
2017-09-28T07:01:55.022Z,315.37
2017-09-28T07:04:22.418Z,314.20
2017-09-28T07:06:49.823Z,268.57
2017-09-28T07:09:17.319Z,220.03
2017-09-28T07:11:44.723Z,226.13
2017-09-28T07:14:12.114Z,217.63
2017-09-28T07:16:39.517Z,253.53
2017-09-28T07:19:07.010Z,239.97
2017-09-28T07:21:34.412Z,193.47
2017-09-28T07:24:01.826Z,331.90
2017-09-28T07:26:29.239Z,258.43
2017-09-28T07:28:56.779Z,265.70
2017-09-28T07:31:24.182Z,219.33
2017-09-28T07:33:51.587Z,272.97
2017-09-28T07:36:19.094Z,205.67
2017-09-28T07:38:46.502Z,248.63
2017-09-28T07:41:14.011Z,223.83
2017-09-28T07:43:41.412Z,220.27
2017-09-28T07:46:08.822Z,249.27
2017-09-28T07:48:36.395Z,196.37
2017-09-28T07:51:03.862Z,252.07
2017-09-28T07:53:31.262Z,152.47
2017-09-28T07:55:58.670Z,168.77
2017-09-28T07:58:26.078Z,249.63
2017-09-28T08:00:53.478Z,234.77
2017-09-28T08:03:21.035Z,245.47
2017-09-28T08:05:48.445Z,169.23
2017-09-28T08:08:15.851Z,185.30
2017-09-28T08:10:43.283Z,158.10
2017-09-28T08:13:10.686Z,199.53
2017-09-28T08:15:38.083Z,215.30
2017-09-28T08:18:05.494Z,199.30
2017-09-28T08:20:32.894Z,159.20
2017-09-28T08:23:00.317Z,157.63
2017-09-28T08:25:27.702Z,213.70
2017-09-28T08:27:55.108Z,190.07
2017-09-28T08:30:22.530Z,149.83
2017-09-28T08:32:49.943Z,176.47
2017-09-28T08:35:17.331Z,171.17
2017-09-28T08:37:44.791Z,171.23
2017-09-28T08:40:12.187Z,143.93
2017-09-28T08:42:39.598Z,163.63
2017-09-28T08:45:07.012Z,158.03
2017-09-28T08:47:34.418Z,158.07
2017-09-28T08:50:01.850Z,127.57
2017-09-28T08:52:29.263Z,167.60
2017-09-28T08:54:56.666Z,156.83
2017-09-28T08:57:24.074Z,133.63
2017-09-28T08:59:51.467Z,160.33
2017-09-28T09:02:18.870Z,141.00
2017-09-28T09:04:46.314Z,134.73
2017-09-28T09:07:13.714Z,138.50
2017-09-28T09:09:41.127Z,137.97
2017-09-28T09:12:08.530Z,144.47
2017-09-28T09:14:35.930Z,169.97
2017-09-28T09:17:03.331Z,142.83
2017-09-28T09:19:30.843Z,162.77
2017-09-28T09:21:58.307Z,166.90
2017-09-28T09:24:25.715Z,151.73
2017-09-28T09:26:53.120Z,155.33
2017-09-28T09:29:20.632Z,168.23
2017-09-28T09:31:48.022Z,156.60
2017-09-28T09:34:15.443Z,128.83
2017-09-28T09:36:42.841Z,145.80
2017-09-28T09:39:10.255Z,174.60
2017-09-28T09:41:37.643Z,131.87
2017-09-28T09:44:05.050Z,139.40
2017-09-28T09:46:32.455Z,136.97
2017-09-28T09:48:59.864Z,143.40
2017-09-28T09:51:27.271Z,157.23
2017-09-28T09:53:54.675Z,126.43
2017-09-28T09:56:22.083Z,133.37
2017-09-28T09:58:49.499Z,126.30
2017-09-28T10:01:16.898Z,156.60
2017-09-28T10:03:44.298Z,170.97
2017-09-28T10:06:11.723Z,154.13
2017-09-28T10:08:43.665Z,155.20
2017-09-28T10:11:11.982Z,120.67
2017-09-28T10:13:43.470Z,150.33
2017-09-28T10:16:13.350Z,121.37
2017-09-28T10:18:40.762Z,138.33
2017-09-28T10:21:08.174Z,119.23
2017-09-28T10:23:35.578Z,121.97
2017-09-28T10:26:02.986Z,138.20
2017-09-28T10:28:30.386Z,134.13
2017-09-28T10:30:57.798Z,134.97
2017-09-28T10:33:25.205Z,127.47
2017-09-28T10:35:52.609Z,132.00
2017-09-28T10:38:20.002Z,164.33
2017-09-28T10:40:47.402Z,139.27
2017-09-28T10:43:14.807Z,127.23
2017-09-28T10:45:42.209Z,126.67
2017-09-28T10:48:09.609Z,115.43
2017-09-28T10:50:37.007Z,149.27
2017-09-28T10:53:04.410Z,125.27
2017-09-28T10:55:31.820Z,120.23
2017-09-28T10:57:59.220Z,107.43
2017-09-28T11:00:26.626Z,127.73
2017-09-28T11:02:54.024Z,111.70
2017-09-28T11:05:21.438Z,107.77
2017-09-28T11:07:48.830Z,117.77
2017-09-28T11:10:16.371Z,120.53
2017-09-28T11:12:43.783Z,110.17
2017-09-28T11:15:11.192Z,130.23
2017-09-28T11:17:38.590Z,123.47
2017-09-28T11:20:06.163Z,127.50
2017-09-28T11:22:33.562Z,109.10
2017-09-28T11:25:00.978Z,113.80
2017-09-28T11:27:28.437Z,115.83
2017-09-28T11:29:55.839Z,109.90
2017-09-28T11:32:23.246Z,121.60
2017-09-28T11:34:50.651Z,113.10
2017-09-28T11:37:18.072Z,111.80
2017-09-28T11:39:45.462Z,117.27
2017-09-28T11:42:12.884Z,124.20
2017-09-28T11:44:40.330Z,110.47
2017-09-28T11:47:07.746Z,106.73
2017-09-28T11:49:35.134Z,107.17
2017-09-28T11:52:02.544Z,115.60
2017-09-28T11:54:29.939Z,96.63
2017-09-28T11:56:57.335Z,97.97
2017-09-28T11:59:24.743Z,104.93
2017-09-28T12:01:52.198Z,102.23
2017-09-28T12:04:19.615Z,100.53
2017-09-28T12:06:47.026Z,98.90
2017-09-28T12:09:14.440Z,96.27
2017-09-28T12:11:41.853Z,100.47
2017-09-28T12:14:09.247Z,92.13
2017-09-28T12:16:36.667Z,95.23
2017-09-28T12:19:04.051Z,99.10
2017-09-28T12:21:31.495Z,106.43
2017-09-28T12:23:58.890Z,90.97
2017-09-28T12:26:26.290Z,99.83
2017-09-28T12:28:53.701Z,92.33
2017-09-28T12:31:21.093Z,78.83
2017-09-28T12:33:48.491Z,90.00
2017-09-28T12:36:15.886Z,87.20
2017-09-28T12:38:43.295Z,94.30
2017-09-28T12:41:10.704Z,101.13
2017-09-28T12:43:38.110Z,105.67
2017-09-28T12:46:05.510Z,103.90
2017-09-28T12:48:32.206Z,114.07
2017-09-28T12:50:59.602Z,95.73
2017-09-28T12:53:27.006Z,104.57
2017-09-28T12:55:54.398Z,93.60
2017-09-28T12:58:21.905Z,113.23
2017-09-28T13:00:49.463Z,88.73
2017-09-28T13:03:16.875Z,102.97
2017-09-28T13:05:44.274Z,94.50
2017-09-28T13:08:11.670Z,101.43
2017-09-28T13:10:39.075Z,101.67
2017-09-28T13:13:06.471Z,104.23
2017-09-28T13:15:33.866Z,93.93
2017-09-28T13:18:01.262Z,93.37
2017-09-28T13:20:28.682Z,101.90
2017-09-28T13:22:56.067Z,93.77
2017-09-28T13:25:23.499Z,87.90
2017-09-28T13:27:50.895Z,94.90
2017-09-28T13:30:18.302Z,92.93
2017-09-28T13:32:45.690Z,93.97
2017-09-28T13:35:13.100Z,99.30
2017-09-28T13:37:40.495Z,97.27
2017-09-28T13:40:07.934Z,90.70
2017-09-28T13:42:35.331Z,88.73
2017-09-28T13:45:02.736Z,94.63
2017-09-28T13:47:30.178Z,87.00
2017-09-28T13:49:57.576Z,78.80
2017-09-28T13:52:24.981Z,82.70
2017-09-28T13:54:52.394Z,86.47
2017-09-28T13:57:19.803Z,79.70
2017-09-28T13:59:47.199Z,89.27
2017-09-28T14:02:14.606Z,79.00
2017-09-28T14:04:41.994Z,82.10
2017-09-28T14:07:09.404Z,81.50
2017-09-28T14:09:36.811Z,83.63
2017-09-28T14:12:04.252Z,71.53
2017-09-28T14:14:31.639Z,71.23
2017-09-28T14:16:59.046Z,80.30
2017-09-28T14:19:26.463Z,75.50
2017-09-28T14:21:53.858Z,92.67
2017-09-28T14:24:21.256Z,77.07
2017-09-28T14:26:48.655Z,76.27
2017-09-28T14:29:16.050Z,66.53
2017-09-28T14:31:43.832Z,83.10
2017-09-28T14:34:11.226Z,76.53
2017-09-28T14:36:38.631Z,72.13
2017-09-28T14:39:06.083Z,67.57
2017-09-28T14:41:33.498Z,74.07
2017-09-28T14:44:00.899Z,67.03
2017-09-28T14:46:28.298Z,68.77
2017-09-28T14:48:55.695Z,74.97
2017-09-28T14:51:23.123Z,74.40
2017-09-28T14:53:50.518Z,69.27
2017-09-28T14:56:17.911Z,66.23
2017-09-28T14:58:45.315Z,77.60
2017-09-28T15:01:12.714Z,77.17
2017-09-28T15:03:40.116Z,67.10
2017-09-28T15:06:07.522Z,78.10
2017-09-28T15:08:34.934Z,74.67
2017-09-28T15:11:02.359Z,85.23
2017-09-28T15:13:29.763Z,69.90
2017-09-28T15:15:57.164Z,74.70
2017-09-28T15:18:24.594Z,75.50
2017-09-28T15:20:51.988Z,82.93
2017-09-28T15:23:18.722Z,87.47
2017-09-28T15:25:46.119Z,80.37
2017-09-28T15:28:13.521Z,81.67
2017-09-28T15:30:40.920Z,69.53
2017-09-28T15:33:08.331Z,91.57
2017-09-28T15:35:35.726Z,87.20
2017-09-28T15:38:03.126Z,78.57
2017-09-28T15:40:30.583Z,77.20
2017-09-28T15:42:57.988Z,77.87
2017-09-28T15:45:25.483Z,89.13
2017-09-28T15:47:52.918Z,85.60
2017-09-28T15:50:20.324Z,89.50
2017-09-28T15:52:47.767Z,90.83
2017-09-28T15:55:15.129Z,81.07
2017-09-28T15:57:43.416Z,83.00
2017-09-28T16:00:10.838Z,81.40
2017-09-28T16:02:38.241Z,85.03
2017-09-28T16:05:05.644Z,86.00
2017-09-28T16:07:33.042Z,77.97
2017-09-28T16:10:00.446Z,78.87
2017-09-28T16:12:27.851Z,86.60
2017-09-28T16:14:55.259Z,85.57
2017-09-28T16:17:22.650Z,85.37
2017-09-28T16:19:50.057Z,97.90
2017-09-28T16:22:17.461Z,86.50
2017-09-28T16:24:44.868Z,88.63
2017-09-28T16:27:12.263Z,80.10
2017-09-28T16:29:39.710Z,90.73
2017-09-28T16:32:07.179Z,82.73
2017-09-28T16:34:34.585Z,91.10
2017-09-28T16:37:02.009Z,78.27
2017-09-28T16:39:29.420Z,79.07
2017-09-28T16:41:56.814Z,80.67
2017-09-28T16:44:24.230Z,82.90
2017-09-28T16:46:51.646Z,104.03
2017-09-28T16:49:19.074Z,89.27
2017-09-28T16:51:46.483Z,92.00
2017-09-28T16:54:13.876Z,97.33
2017-09-28T16:56:41.291Z,106.67
2017-09-28T16:59:08.687Z,87.03
2017-09-28T17:01:36.100Z,111.80
2017-09-28T17:04:03.491Z,88.50
2017-09-28T17:06:30.886Z,91.30
2017-09-28T17:08:58.281Z,92.37
2017-09-28T17:11:25.690Z,103.37
2017-09-28T17:13:53.090Z,105.90
2017-09-28T17:16:20.490Z,107.33
2017-09-28T17:18:47.908Z,117.63
2017-09-28T17:21:15.310Z,96.50
2017-09-28T17:23:42.710Z,96.80
2017-09-28T17:26:10.114Z,88.73
2017-09-28T17:28:37.531Z,129.37
2017-09-28T17:31:04.946Z,118.40
2017-09-28T17:33:32.357Z,108.20
2017-09-28T17:35:59.755Z,113.00
2017-09-28T17:38:27.169Z,106.43
2017-09-28T17:40:54.563Z,105.13
2017-09-28T17:43:22.489Z,126.23
2017-09-28T17:45:49.877Z,127.90
2017-09-28T17:48:17.284Z,125.87
2017-09-28T17:50:44.762Z,103.43
2017-09-28T17:53:12.164Z,109.57
2017-09-28T17:55:39.568Z,120.50
2017-09-28T17:58:06.972Z,114.47
2017-09-28T18:00:34.378Z,112.50
2017-09-28T18:03:01.790Z,128.80
2017-09-28T18:05:29.315Z,126.10
2017-09-28T18:07:56.764Z,125.50
2017-09-28T18:10:24.163Z,140.73
2017-09-28T18:12:51.719Z,104.87
2017-09-28T18:15:19.128Z,125.40
2017-09-28T18:17:46.550Z,115.50
2017-09-28T18:20:14.742Z,109.00
2017-09-28T18:22:42.151Z,123.20
2017-09-28T18:25:09.551Z,119.83
2017-09-28T18:27:36.960Z,117.37
2017-09-28T18:30:04.565Z,114.30
2017-09-28T18:32:31.978Z,133.87
2017-09-28T18:34:59.514Z,107.97
2017-09-28T18:37:26.937Z,101.33
2017-09-28T18:39:54.351Z,121.53
2017-09-28T18:42:21.755Z,125.70
2017-09-28T18:44:49.227Z,122.07
2017-09-28T18:47:16.620Z,113.00
2017-09-28T18:49:44.053Z,131.53
2017-09-28T18:52:11.491Z,138.37
2017-09-28T18:54:38.890Z,148.13
2017-09-28T18:57:06.298Z,166.50
2017-09-28T18:59:33.702Z,155.53
2017-09-28T19:02:01.102Z,160.88
2017-09-28T19:04:28.515Z,153.40
2017-09-28T19:06:55.917Z,164.73
2017-09-28T19:09:23.332Z,140.80
2017-09-28T19:11:50.731Z,179.03
2017-09-28T19:14:18.133Z,126.70
2017-09-28T19:16:45.551Z,153.33
2017-09-28T19:19:13.122Z,141.87
2017-09-28T19:21:40.747Z,167.43
2017-09-28T19:24:08.202Z,180.23
2017-09-28T19:26:35.687Z,160.23
2017-09-28T19:29:03.091Z,162.13
2017-09-28T19:31:30.490Z,145.17
2017-09-28T19:33:57.900Z,149.77
2017-09-28T19:36:25.301Z,175.83
2017-09-28T19:38:52.760Z,201.67
2017-09-28T19:41:20.152Z,159.53
2017-09-28T19:43:47.593Z,143.33
2017-09-28T19:46:14.983Z,147.47
2017-09-28T19:48:42.396Z,163.77
2017-09-28T19:51:09.787Z,146.20
2017-09-28T19:53:37.198Z,183.60
2017-09-28T19:56:04.606Z,156.93
2017-09-28T19:58:32.026Z,181.83
2017-09-28T20:00:59.436Z,164.10
2017-09-28T20:03:26.900Z,191.73
2017-09-28T20:05:54.315Z,173.33
2017-09-28T20:08:21.722Z,187.63
2017-09-28T20:10:49.127Z,177.80
2017-09-28T20:13:16.547Z,143.60
2017-09-28T20:15:43.963Z,143.97
2017-09-28T20:18:11.367Z,179.70
2017-09-28T20:20:38.775Z,144.33
2017-09-28T20:23:06.188Z,155.70
2017-09-28T20:25:33.622Z,159.50
2017-09-28T20:28:01.020Z,169.47
2017-09-28T20:30:28.418Z,191.30
2017-09-28T20:32:56.011Z,191.50
2017-09-28T20:35:23.403Z,173.10
2017-09-28T20:37:50.795Z,193.27
2017-09-28T20:40:18.199Z,202.30
2017-09-28T20:42:45.606Z,164.47
2017-09-28T20:45:13.080Z,165.47
2017-09-28T20:47:40.485Z,203.30
2017-09-28T20:50:07.899Z,166.67
2017-09-28T20:52:35.292Z,160.47
2017-09-28T20:55:02.710Z,157.53
2017-09-28T20:57:30.100Z,190.93
2017-09-28T20:59:57.505Z,154.70
2017-09-28T21:02:24.912Z,198.57
2017-09-28T21:04:52.364Z,214.03
2017-09-28T21:07:19.766Z,203.23
2017-09-28T21:09:47.168Z,140.93
2017-09-28T21:12:14.582Z,146.57
2017-09-28T21:14:41.989Z,147.43
2017-09-28T21:17:09.381Z,155.13
2017-09-28T21:19:36.788Z,149.33
2017-09-28T21:22:04.191Z,149.50
2017-09-28T21:24:31.603Z,167.40
2017-09-28T21:26:59.018Z,176.83
2017-09-28T21:29:26.419Z,146.40
2017-09-28T21:31:53.827Z,212.90
2017-09-28T21:34:21.226Z,253.83
2017-09-28T21:36:48.639Z,214.73
2017-09-28T21:39:16.039Z,171.10
2017-09-28T21:41:43.451Z,172.47
2017-09-28T21:44:10.851Z,171.50
2017-09-28T21:46:38.367Z,180.03
2017-09-28T21:49:05.764Z,212.23
2017-09-28T21:51:33.171Z,249.00
2017-09-28T21:54:00.571Z,130.37
2017-09-28T21:56:27.986Z,133.00
2017-09-28T21:58:55.391Z,195.37
2017-09-28T22:01:22.794Z,186.47
2017-09-28T22:03:50.263Z,158.60
2017-09-28T22:06:17.663Z,192.57
2017-09-28T22:08:45.075Z,279.27
2017-09-28T22:11:12.474Z,205.17
2017-09-28T22:13:39.992Z,218.97
2017-09-28T22:16:07.399Z,201.70
2017-09-28T22:18:34.908Z,166.67
2017-09-28T22:21:02.316Z,292.07
2017-09-28T22:23:29.714Z,270.60
2017-09-28T22:25:57.114Z,229.13
2017-09-28T22:28:24.522Z,271.43
2017-09-28T22:30:51.923Z,213.90
2017-09-28T22:33:19.431Z,168.70
2017-09-28T22:35:46.829Z,207.63
2017-09-28T22:38:14.230Z,176.37
2017-09-28T22:40:41.630Z,184.10
2017-09-28T22:43:09.044Z,196.83
2017-09-28T22:45:36.443Z,197.43
2017-09-28T22:48:03.851Z,198.77
2017-09-28T22:50:31.254Z,228.93
2017-09-28T22:52:58.663Z,192.10
2017-09-28T22:55:26.144Z,170.03
2017-09-28T22:57:53.554Z,154.00
2017-09-28T23:00:20.973Z,167.63
2017-09-28T23:02:48.379Z,245.50
2017-09-28T23:05:15.784Z,192.57
2017-09-28T23:07:43.182Z,145.00
2017-09-28T23:10:10.582Z,147.63
2017-09-28T23:12:37.986Z,214.17
2017-09-28T23:15:05.392Z,165.67
2017-09-28T23:17:32.806Z,186.93
2017-09-28T23:20:00.204Z,148.10
2017-09-28T23:22:27.598Z,168.20
2017-09-28T23:24:55.004Z,146.87
2017-09-28T23:27:22.394Z,168.93
2017-09-28T23:29:49.808Z,157.77
2017-09-28T23:32:17.207Z,214.87
2017-09-28T23:34:44.618Z,151.17
2017-09-28T23:37:12.031Z,195.97
2017-09-28T23:39:39.553Z,205.47
2017-09-28T23:42:06.939Z,129.67
2017-09-28T23:44:34.344Z,149.07
2017-09-28T23:47:01.746Z,215.07
2017-09-28T23:49:29.156Z,148.90
2017-09-28T23:51:56.550Z,150.23
2017-09-28T23:54:23.962Z,218.67
2017-09-28T23:56:51.364Z,139.37
2017-09-28T23:59:18.780Z,166.57
